La Balsita — WDI9602 — position and weather

sailwx.info

Track history (hours):
 
Tides and Currents Weather Stations Pressure Air Temp Water Temp Dewpoint Dewpoint Depression Visibility Wind Speed Wind Dir Waves Ship Positions

La Balsita

Owner: La Balsita Llc, Miami, FL. More information available from US FCC via Universal Licensing System and Coast Guard Vessel Documentation Center.

Last reported at 2017-Oct-17 16:59 UTC. Time now 2017-Oct-17 17:11 UTC.
Position N 25°43' W 080°14'.

Length 28 m; draft 1.7 m.

Type: Pleasure craft. MMSI: 338360000.

Date/timePositionNaut miles runAvg speedWind from/ knotsBaromVisibWave heightAir tempDewpointWater temp
2017-Oct-17 16:59N 25°43' W 080°14'0 0.0
2017-Oct-17 16:29N 25°43' W 080°14'0 0.0
2017-Oct-17 15:56N 25°43' W 080°14'0 0.0
2017-Oct-17 15:26N 25°43' W 080°14'0 0.0
2017-Oct-17 14:56N 25°43' W 080°14'0 0.0
2017-Oct-17 14:29N 25°43' W 080°14'0 0.0
2017-Oct-17 13:56N 25°43' W 080°14'0 0.0
2017-Oct-17 13:29N 25°43' W 080°14'0 0.0
2017-Oct-17 12:59N 25°43' W 080°14'0 0.0
2017-Oct-17 12:29N 25°43' W 080°14'0 0.0
2017-Oct-17 11:59N 25°43' W 080°14'0 0.0
2017-Oct-17 11:29N 25°43' W 080°14'0 0.0
2017-Oct-17 10:59N 25°43' W 080°14'0 0.0
2017-Oct-17 10:29N 25°43' W 080°14'0 0.0
2017-Oct-17 09:59N 25°43' W 080°14'0 0.0
2017-Oct-17 09:29N 25°43' W 080°14'0 0.0
2017-Oct-17 08:59N 25°43' W 080°14'0 0.0
2017-Oct-17 08:17N 25°43' W 080°14'0 0.0
2017-Oct-17 07:59N 25°43' W 080°14'0 0.0
2017-Oct-17 07:26N 25°43' W 080°14'0 0.0
2017-Oct-17 06:59N 25°43' W 080°14'0 0.0
2017-Oct-17 06:29N 25°43' W 080°14'0 0.0
2017-Oct-17 05:59N 25°43' W 080°14'0 0.0
2017-Oct-17 05:26N 25°43' W 080°14'0 0.0
2017-Oct-17 04:56N 25°43' W 080°14'0 0.0
2017-Oct-17 04:23N 25°43' W 080°14'0 0.0
2017-Oct-17 03:59N 25°43' W 080°14'0 0.0
2017-Oct-17 03:14N 25°43' W 080°14'0 0.0
2017-Oct-17 02:59N 25°43' W 080°14'0 0.0
2017-Oct-17 02:29N 25°43' W 080°14'0 0.0
2017-Oct-17 01:56N 25°43' W 080°14'0 0.0
2017-Oct-17 01:29N 25°43' W 080°14'3 5.3
2017-Oct-17 01:00N 25°44' W 080°11'3 5.7
2017-Oct-17 00:30N 25°46' W 080°09'1 1.3
2017-Oct-17 00:00N 25°47' W 080°09'2 4.1
2017-Oct-16 23:30N 25°46' W 080°11'4 7.2
2017-Oct-16 23:00N 25°43' W 080°14'1 1.0
2017-Oct-16 22:27N 25°43' W 080°14'0 0.0
2017-Oct-16 22:00N 25°43' W 080°14'0 0.0
2017-Oct-16 21:30N 25°43' W 080°14'0 0.0
2017-Oct-16 21:00N 25°43' W 080°14'0 0.0
2017-Oct-16 20:30N 25°43' W 080°14'0 0.0
2017-Oct-16 20:00N 25°43' W 080°14'0 0.0
2017-Oct-16 19:30N 25°43' W 080°14'0 0.0
2017-Oct-16 18:57N 25°43' W 080°14'0 0.0
2017-Oct-16 18:30N 25°43' W 080°14'0 0.0
2017-Oct-16 18:00N 25°43' W 080°14'0 0.0
2017-Oct-16 17:30N 25°43' W 080°14'0 0.0
2017-Oct-16 17:00N 25°43' W 080°14'0 0.0
2017-Oct-16 16:30N 25°43' W 080°14'0 0.0
2017-Oct-16 16:00N 25°43' W 080°14'0 0.0
2017-Oct-16 15:24N 25°43' W 080°14'0 0.0
2017-Oct-16 14:54N 25°43' W 080°14'0 0.0
2017-Oct-16 13:54N 25°43' W 080°14'0 0.0
2017-Oct-16 13:30N 25°43' W 080°14'0 0.0
2017-Oct-16 13:00N 25°43' W 080°14'0 0.0
2017-Oct-16 12:30N 25°43' W 080°14'0 0.0
2017-Oct-16 12:00N 25°43' W 080°14'0 0.0
2017-Oct-16 11:30N 25°43' W 080°14'0 0.0
2017-Oct-16 11:00N 25°43' W 080°14'0 0.0
2017-Oct-16 10:30N 25°43' W 080°14'0 0.0
2017-Oct-16 10:00N 25°43' W 080°14'0 0.0
2017-Oct-16 09:30N 25°43' W 080°14'0 0.0
2017-Oct-16 09:00N 25°43' W 080°14'0 0.0
2017-Oct-16 08:30N 25°43' W 080°14'0 0.0
2017-Oct-16 08:00N 25°43' W 080°14'0 0.0
2017-Oct-16 07:31N 25°43' W 080°14'0 0.0
2017-Oct-16 07:00N 25°43' W 080°14'0 0.0
2017-Oct-16 06:31N 25°43' W 080°14'0 0.0
2017-Oct-16 06:01N 25°43' W 080°14'0 0.0
2017-Oct-16 05:30N 25°43' W 080°14'0 0.0
2017-Oct-16 05:00N 25°43' W 080°14'0 0.0
2017-Oct-16 04:30N 25°43' W 080°14'0 0.0
2017-Oct-16 04:00N 25°43' W 080°14'0 0.0
2017-Oct-16 03:30N 25°43' W 080°14'0 0.0
2017-Oct-16 03:00N 25°43' W 080°14'0 0.0
2017-Oct-16 02:28N 25°43' W 080°14'0 0.0
2017-Oct-16 02:00N 25°43' W 080°14'0 0.0
2017-Oct-16 01:30N 25°43' W 080°14'0 0.0
2017-Oct-16 01:01N 25°43' W 080°14'0 0.0
2017-Oct-16 00:30N 25°43' W 080°14'0 0.4
2017-Oct-16 00:00N 25°43' W 080°14'5 8.7
2017-Oct-15 23:29N 25°41' W 080°10'0 0.0
2017-Oct-15 22:59N 25°41' W 080°10'0 0.0
2017-Oct-15 22:29N 25°41' W 080°10'0 0.0
2017-Oct-15 21:59N 25°41' W 080°10'0 0.0
2017-Oct-15 21:29N 25°41' W 080°10'0 0.0
2017-Oct-15 20:59N 25°41' W 080°10'0 0.0
2017-Oct-15 20:29N 25°41' W 080°10'0 0.0
2017-Oct-15 19:59N 25°41' W 080°10'0 0.0
2017-Oct-15 19:26N 25°41' W 080°10'0 0.9
2017-Oct-15 19:00N 25°41' W 080°10'4 8.7
2017-Oct-15 18:30N 25°43' W 080°14'0 0.1
2017-Oct-15 18:00N 25°43' W 080°14'0 0.0
2017-Oct-15 17:30N 25°43' W 080°14'0 0.0
2017-Oct-15 17:00N 25°43' W 080°14'0 0.0
2017-Oct-15 16:30N 25°43' W 080°14'0 0.0
2017-Oct-15 16:00N 25°43' W 080°14'0 0.0
2017-Oct-15 15:30N 25°43' W 080°14'0 0.0
2017-Oct-15 15:00N 25°43' W 080°14'0 0.0
2017-Oct-15 14:00N 25°43' W 080°14'0 0.0
2017-Oct-15 13:30N 25°43' W 080°14'0 0.0
2017-Oct-15 13:00N 25°43' W 080°14'0 0.0
2017-Oct-15 12:30N 25°43' W 080°14'0 0.0
2017-Oct-15 12:00N 25°43' W 080°14'0 0.0
2017-Oct-15 11:30N 25°43' W 080°14'0 0.0
2017-Oct-15 11:00N 25°43' W 080°14'0 0.0
2017-Oct-15 10:30N 25°43' W 080°14'0 0.0
2017-Oct-15 10:00N 25°43' W 080°14'0 0.0
2017-Oct-15 09:30N 25°43' W 080°14'0 0.0
2017-Oct-15 09:00N 25°43' W 080°14'0 0.0
2017-Oct-15 08:30N 25°43' W 080°14'0 0.0
2017-Oct-15 07:51N 25°43' W 080°14'0 0.0
2017-Oct-15 07:27N 25°43' W 080°14'0 0.0
2017-Oct-15 07:00N 25°43' W 080°14'0 0.0
2017-Oct-15 06:30N 25°43' W 080°14'0 0.0
2017-Oct-15 06:00N 25°43' W 080°14'0 0.0
2017-Oct-15 05:30N 25°43' W 080°14'0 0.0
2017-Oct-15 05:00N 25°43' W 080°14'0 0.0
2017-Oct-15 04:30N 25°43' W 080°14'0 0.0
2017-Oct-15 04:00N 25°43' W 080°14'0 0.0
2017-Oct-15 03:30N 25°43' W 080°14'0 0.0
2017-Oct-15 03:00N 25°43' W 080°14'0 0.0
2017-Oct-15 02:30N 25°43' W 080°14'0 0.0
2017-Oct-15 02:00N 25°43' W 080°14'0 0.0
2017-Oct-15 01:30N 25°43' W 080°14'0 0.0
2017-Oct-15 00:57N 25°43' W 080°14'0 0.0
2017-Oct-15 00:30N 25°43' W 080°14'0 0.0
2017-Oct-15 00:00N 25°43' W 080°14'3 5.4
2017-Oct-14 23:30N 25°44' W 080°11'2 3.7
2017-Oct-14 23:01N 25°46' W 080°11'5 9.1
2017-Oct-14 22:30N 25°42' W 080°11'0 0.3
2017-Oct-14 21:59N 25°41' W 080°11'0 0.0
2017-Oct-14 21:29N 25°41' W 080°11'0 0.0
2017-Oct-14 20:59N 25°41' W 080°11'0 0.0
2017-Oct-14 20:29N 25°41' W 080°11'0 0.0
2017-Oct-14 19:59N 25°41' W 080°11'0 0.0
2017-Oct-14 19:29N 25°41' W 080°11'0 0.0
2017-Oct-14 18:59N 25°41' W 080°11'0 0.7
2017-Oct-14 18:30N 25°41' W 080°11'2 4.2
2017-Oct-14 18:00N 25°39' W 080°11'5 9.2
2017-Oct-14 17:30N 25°43' W 080°14'0 0.9
2017-Oct-14 17:00N 25°43' W 080°14'0 0.0
2017-Oct-14 16:30N 25°43' W 080°14'0 0.0
2017-Oct-14 16:00N 25°43' W 080°14'0 0.0
2017-Oct-14 15:30N 25°43' W 080°14'0 0.0
2017-Oct-14 15:00N 25°43' W 080°14'0 0.0
2017-Oct-14 14:30N 25°43' W 080°14'0 0.0
2017-Oct-14 14:00N 25°43' W 080°14'0 0.0
2017-Oct-14 13:30N 25°43' W 080°14'0 0.0
2017-Oct-14 13:00N 25°43' W 080°14'0 0.0
2017-Oct-14 12:30N 25°43' W 080°14'0 0.0
2017-Oct-14 12:00N 25°43' W 080°14'0 0.0
2017-Oct-14 11:30N 25°43' W 080°14'0 0.0
2017-Oct-14 11:00N 25°43' W 080°14'0 0.0
2017-Oct-14 10:30N 25°43' W 080°14'0 0.0
2017-Oct-14 10:00N 25°43' W 080°14'0 0.0
2017-Oct-14 09:30N 25°43' W 080°14'0 0.0
2017-Oct-14 09:00N 25°43' W 080°14'0 0.0
2017-Oct-14 08:30N 25°43' W 080°14'0 0.0
2017-Oct-14 08:00N 25°43' W 080°14'0 0.0
2017-Oct-14 07:30N 25°43' W 080°14'0 0.0
2017-Oct-14 07:00N 25°43' W 080°14'0 0.0
2017-Oct-14 06:27N 25°43' W 080°14'0 0.0
2017-Oct-14 06:00N 25°43' W 080°14'0 0.0
2017-Oct-14 05:30N 25°43' W 080°14'0 0.0
2017-Oct-14 05:00N 25°43' W 080°14'0 0.0
2017-Oct-14 04:30N 25°43' W 080°14'0 0.0
2017-Oct-14 04:00N 25°43' W 080°14'0 0.0
2017-Oct-14 03:30N 25°43' W 080°14'0 0.0
2017-Oct-14 03:00N 25°43' W 080°14'0 0.0
2017-Oct-14 02:30N 25°43' W 080°14'0 0.0
2017-Oct-14 02:00N 25°43' W 080°14'0 0.0
2017-Oct-14 01:30N 25°43' W 080°14'0 0.0
2017-Oct-14 00:57N 25°43' W 080°14'0 0.0
2017-Oct-14 00:30N 25°43' W 080°14'0 0.0
2017-Oct-14 00:00N 25°43' W 080°14'0 0.0
2017-Oct-13 23:30N 25°43' W 080°14'0 0.0
2017-Oct-13 23:00N 25°43' W 080°14'0 0.0
2017-Oct-13 22:30N 25°43' W 080°14'0 0.0
2017-Oct-13 22:00N 25°43' W 080°14'0 0.0
2017-Oct-13 21:30N 25°43' W 080°14'0 0.0
2017-Oct-13 21:00N 25°43' W 080°14'0 0.0
2017-Oct-13 20:24N 25°43' W 080°14'0 0.0
2017-Oct-13 19:51N 25°43' W 080°14'0 0.0
2017-Oct-13 19:30N 25°43' W 080°14'0 0.0
2017-Oct-13 19:00N 25°43' W 080°14'0 0.0
2017-Oct-13 18:27N 25°43' W 080°14'0 0.0
2017-Oct-13 18:00N 25°43' W 080°14'0 0.0
2017-Oct-13 17:27N 25°43' W 080°14'0 0.0
2017-Oct-13 17:00N 25°43' W 080°14'0 0.0
2017-Oct-13 16:27N 25°43' W 080°14'0 0.0
2017-Oct-13 16:00N 25°43' W 080°14'0 0.0
2017-Oct-13 15:27N 25°43' W 080°14'0 0.0
2017-Oct-13 15:00N 25°43' W 080°14'0 0.0
2017-Oct-13 14:27N 25°43' W 080°14'0 0.0
2017-Oct-13 14:00N 25°43' W 080°14'0 0.0
2017-Oct-13 13:30N 25°43' W 080°14'0 0.0
2017-Oct-13 13:00N 25°43' W 080°14'0 0.0
2017-Oct-13 12:30N 25°43' W 080°14'0 0.0
2017-Oct-13 12:00N 25°43' W 080°14'0 0.0
2017-Oct-13 11:24N 25°43' W 080°14'0 0.0
2017-Oct-13 11:00N 25°43' W 080°14'0 0.0
2017-Oct-13 10:27N 25°43' W 080°14'0 0.0
2017-Oct-13 10:00N 25°43' W 080°14'0 0.0
2017-Oct-13 09:30N 25°43' W 080°14'0 0.0
2017-Oct-13 08:42N 25°43' W 080°14'0 0.0
2017-Oct-13 08:21N 25°43' W 080°14'0 0.0
2017-Oct-13 07:54N 25°43' W 080°14'0 0.0
2017-Oct-13 07:30N 25°43' W 080°14'0 0.0
2017-Oct-13 06:57N 25°43' W 080°14'0 0.0
2017-Oct-13 06:27N 25°43' W 080°14'0 0.0
2017-Oct-13 05:54N 25°43' W 080°14'0 0.0
2017-Oct-13 05:30N 25°43' W 080°14'0 0.0
2017-Oct-13 05:00N 25°43' W 080°14'0 0.0
2017-Oct-13 04:27N 25°43' W 080°14'0 0.0
2017-Oct-13 04:00N 25°43' W 080°14'0 0.0
2017-Oct-13 03:30N 25°43' W 080°14'0 0.0
2017-Oct-13 03:00N 25°43' W 080°14'0 0.0
2017-Oct-13 02:30N 25°43' W 080°14'0 0.0
2017-Oct-13 02:00N 25°43' W 080°14'0 0.0
2017-Oct-13 01:30N 25°43' W 080°14'0 0.0
2017-Oct-13 00:57N 25°43' W 080°14'0 0.0
2017-Oct-13 00:12N 25°43' W 080°14'0 0.0
2017-Oct-13 00:00N 25°43' W 080°14'0 0.0
2017-Oct-12 23:27N 25°43' W 080°14'0 0.0
2017-Oct-12 23:00N 25°43' W 080°14'0 0.0
2017-Oct-12 22:24N 25°43' W 080°14'0 0.0
2017-Oct-12 21:57N 25°43' W 080°14'0 0.0
2017-Oct-12 21:30N 25°43' W 080°14'0 0.0
2017-Oct-12 20:57N 25°43' W 080°14'0 0.0
2017-Oct-12 20:27N 25°43' W 080°14'0 0.0
2017-Oct-12 19:57N 25°43' W 080°14'0 0.0
2017-Oct-12 19:18N 25°43' W 080°14'0 0.0
2017-Oct-12 19:00N 25°43' W 080°14'0 0.0
2017-Oct-12 18:30N 25°43' W 080°14'0 0.0
2017-Oct-12 18:00N 25°43' W 080°14'0 0.0
2017-Oct-12 17:24N 25°43' W 080°14'0 0.0
2017-Oct-12 16:48N 25°43' W 080°14'0 0.0
2017-Oct-12 16:27N 25°43' W 080°14'0 0.0
2017-Oct-12 15:48N 25°43' W 080°14'0 0.0
2017-Oct-12 15:24N 25°43' W 080°14'0 0.0
2017-Oct-12 15:00N 25°43' W 080°14'0 0.0
2017-Oct-12 14:27N 25°43' W 080°14'0 0.0
2017-Oct-12 13:57N 25°43' W 080°14'0 0.0
2017-Oct-12 13:30N 25°43' W 080°14'0 0.0
2017-Oct-12 13:00N 25°43' W 080°14'0 0.0
2017-Oct-12 12:27N 25°43' W 080°14'0 0.0
2017-Oct-12 11:33N 25°43' W 080°14'0 0.0
2017-Oct-12 11:24N 25°43' W 080°14'0 0.0
2017-Oct-12 10:51N 25°43' W 080°14'0 0.0
2017-Oct-12 10:27N 25°43' W 080°14'0 0.0
2017-Oct-12 09:57N 25°43' W 080°14'0 0.0
2017-Oct-12 09:24N 25°43' W 080°14'0 0.0
2017-Oct-12 09:00N 25°43' W 080°14'0 0.0
2017-Oct-12 08:30N 25°43' W 080°14'0 0.0
2017-Oct-12 08:00N 25°43' W 080°14'0 0.0
2017-Oct-12 07:30N 25°43' W 080°14'0 0.0
2017-Oct-12 06:51N 25°43' W 080°14'0 0.0
2017-Oct-12 06:21N 25°43' W 080°14'0 0.0
2017-Oct-12 05:54N 25°43' W 080°14'0 0.0
2017-Oct-12 05:30N 25°43' W 080°14'0 0.0
2017-Oct-12 04:57N 25°43' W 080°14'0 0.0
2017-Oct-12 04:30N 25°43' W 080°14'0 0.0
2017-Oct-12 04:00N 25°43' W 080°14'0 0.0
2017-Oct-12 03:24N 25°43' W 080°14'0 0.0
2017-Oct-12 02:54N 25°43' W 080°14'0 0.0
2017-Oct-12 02:18N 25°43' W 080°14'0 0.0
2017-Oct-12 02:00N 25°43' W 080°14'0 0.0
2017-Oct-12 01:24N 25°43' W 080°14'0 0.0
2017-Oct-12 01:00N 25°43' W 080°14'0 0.0
2017-Oct-12 00:30N 25°43' W 080°14'0 0.0
2017-Oct-12 00:00N 25°43' W 080°14'0 0.0
2017-Oct-11 23:21N 25°43' W 080°14'0 0.0
2017-Oct-11 23:00N 25°43' W 080°14'0 0.0
2017-Oct-11 22:27N 25°43' W 080°14'0 0.0
2017-Oct-11 21:54N 25°43' W 080°14'0 0.0
2017-Oct-11 21:30N 25°43' W 080°14'0 0.0
2017-Oct-11 21:00N 25°43' W 080°14'0 0.0
2017-Oct-11 20:27N 25°43' W 080°14'0 0.0
2017-Oct-11 19:57N 25°43' W 080°14'0 0.0
2017-Oct-11 19:30N 25°43' W 080°14'0 0.0
2017-Oct-11 18:48N 25°43' W 080°14'0 0.0
2017-Oct-11 18:12N 25°43' W 080°14'0 0.0
2017-Oct-11 18:00N 25°43' W 080°14'0 0.0
2017-Oct-11 17:30N 25°43' W 080°14'0 0.0
2017-Oct-11 16:57N 25°43' W 080°14'0 0.0
2017-Oct-11 00:00N 25°43' W 080°14'0 0.0
2017-Oct-10 23:30N 25°43' W 080°14'0 0.0
2017-Oct-10 22:57N 25°43' W 080°14'0 0.0
2017-Oct-10 22:30N 25°43' W 080°14'0 0.0
2017-Oct-10 21:57N 25°43' W 080°14'0 0.0
2017-Oct-10 21:30N 25°43' W 080°14'0 0.0
2017-Oct-10 21:00N 25°43' W 080°14'0 0.0
2017-Oct-10 20:30N 25°43' W 080°14'0 0.0
2017-Oct-10 20:00N 25°43' W 080°14'0 0.0
2017-Oct-10 19:30N 25°43' W 080°14'0 0.0
2017-Oct-10 18:57N 25°43' W 080°14'0 0.0
2017-Oct-10 18:30N 25°43' W 080°14'0 0.0
2017-Oct-10 18:00N 25°43' W 080°14'0 0.0
2017-Oct-10 17:24N 25°43' W 080°14'0 0.0
2017-Oct-10 17:00N 25°43' W 080°14'0 0.0
2017-Oct-10 16:30N 25°43' W 080°14'0 0.0
2017-Oct-10 16:00N 25°43' W 080°14'0 0.0
2017-Oct-10 15:30N 25°43' W 080°14'0 0.0
2017-Oct-10 15:00N 25°43' W 080°14'0 0.0
2017-Oct-10 13:54N 25°43' W 080°14'0 0.0
2017-Oct-10 13:27N 25°43' W 080°14'0 0.0
2017-Oct-10 12:57N 25°43' W 080°14'0 0.0
2017-Oct-10 12:30N 25°43' W 080°14'0 0.0
2017-Oct-10 11:57N 25°43' W 080°14'0 0.0
2017-Oct-10 11:30N 25°43' W 080°14'0 0.0
2017-Oct-10 10:57N 25°43' W 080°14'0 0.0
2017-Oct-10 10:30N 25°43' W 080°14'0 0.0
2017-Oct-10 09:57N 25°43' W 080°14'0 0.0
2017-Oct-10 09:12N 25°43' W 080°14'0 0.0
2017-Oct-10 08:57N 25°43' W 080°14'0 0.0
2017-Oct-10 08:30N 25°43' W 080°14'0 0.0
2017-Oct-10 08:00N 25°43' W 080°14'0 0.0
2017-Oct-10 07:27N 25°43' W 080°14'0 0.0
2017-Oct-10 06:54N 25°43' W 080°14'0 0.0
2017-Oct-10 06:30N 25°43' W 080°14'0 0.0
2017-Oct-10 05:57N 25°43' W 080°14'0 0.0
2017-Oct-10 05:15N 25°43' W 080°14'0 0.0
2017-Oct-10 04:57N 25°43' W 080°14'0 0.0
2017-Oct-10 04:30N 25°43' W 080°14'0 0.0
2017-Oct-10 03:57N 25°43' W 080°14'0 0.0
2017-Oct-10 03:30N 25°43' W 080°14'0 0.0
2017-Oct-10 02:57N 25°43' W 080°14'0 0.0
2017-Oct-10 02:18N 25°43' W 080°14'0 0.0
2017-Oct-10 01:54N 25°43' W 080°14'0 0.0
2017-Oct-10 01:24N 25°43' W 080°14'0 0.0
2017-Oct-10 01:00N 25°43' W 080°14'0 0.0
2017-Oct-10 00:30N 25°43' W 080°14'0 0.0
2017-Oct-09 23:48N 25°43' W 080°14'1 2.8
2017-Oct-09 23:30N 25°43' W 080°13'4 8.0
2017-Oct-09 23:00N 25°41' W 080°10'0 0.0
2017-Oct-09 22:24N 25°41' W 080°10'0 0.0
2017-Oct-09 21:51N 25°41' W 080°10'0 0.0
2017-Oct-09 21:30N 25°41' W 080°10'0 0.0
2017-Oct-09 20:54N 25°41' W 080°10'0 0.0
2017-Oct-09 20:27N 25°41' W 080°10'0 0.0
2017-Oct-09 19:39N 25°41' W 080°10'0 0.0
2017-Oct-09 19:30N 25°41' W 080°10'0 0.0
2017-Oct-09 19:00N 25°41' W 080°10'0 0.0
2017-Oct-09 18:21N 25°41' W 080°10'0 0.0
2017-Oct-09 17:51N 25°41' W 080°10'0 0.1
2017-Oct-09 17:24N 25°41' W 080°10'2 3.9
2017-Oct-09 17:00N 25°39' W 080°11'5 9.3
2017-Oct-09 16:30N 25°43' W 080°13'1 1.5
2017-Oct-09 15:59N 25°43' W 080°14'0 0.0
2017-Oct-09 15:26N 25°43' W 080°14'0 0.0
2017-Oct-09 14:44N 25°43' W 080°14'0 0.0
2017-Oct-09 14:26N 25°43' W 080°14'0 0.0
2017-Oct-09 13:56N 25°43' W 080°14'0 0.0
2017-Oct-09 13:29N 25°43' W 080°14'0 0.0
2017-Oct-09 12:56N 25°43' W 080°14'0 0.0
2017-Oct-09 12:23N 25°43' W 080°14'0 0.0
2017-Oct-09 11:41N 25°43' W 080°14'0 0.0
2017-Oct-09 11:29N 25°43' W 080°14'0 0.0
2017-Oct-09 10:44N 25°43' W 080°14'0 0.0
2017-Oct-09 10:23N 25°43' W 080°14'0 0.0
2017-Oct-09 09:56N 25°43' W 080°14'0 0.0
2017-Oct-09 09:26N 25°43' W 080°14'0 0.0
2017-Oct-09 08:59N 25°43' W 080°14'0 0.0
2017-Oct-09 08:29N 25°43' W 080°14'0 0.0
2017-Oct-09 07:53N 25°43' W 080°14'0 0.0
2017-Oct-09 07:26N 25°43' W 080°14'0 0.0
2017-Oct-09 06:38N 25°43' W 080°14'0 0.0
2017-Oct-09 06:11N 25°43' W 080°14'0 0.0
2017-Oct-09 05:59N 25°43' W 080°14'0 0.0
2017-Oct-09 05:26N 25°43' W 080°14'0 0.0
2017-Oct-09 04:59N 25°43' W 080°14'0 0.0
2017-Oct-09 04:14N 25°43' W 080°14'0 0.0
2017-Oct-09 03:59N 25°43' W 080°14'0 0.0
2017-Oct-09 03:29N 25°43' W 080°14'0 0.0
2017-Oct-09 02:59N 25°43' W 080°14'0 0.7
2017-Oct-09 02:30N 25°43' W 080°14'3 4.3
2017-Oct-09 01:44N 25°42' W 080°11'0 0.0
2017-Oct-09 00:50N 25°42' W 080°11'0 0.0
2017-Oct-09 00:20N 25°42' W 080°11'0 0.0
2017-Oct-08 23:56N 25°42' W 080°11'0 0.0
2017-Oct-08 23:20N 25°42' W 080°11'0 0.0
2017-Oct-08 22:59N 25°42' W 080°11'0 0.0
2017-Oct-08 22:26N 25°42' W 080°11'0 0.0
2017-Oct-08 21:56N 25°42' W 080°11'0 0.0
2017-Oct-08 21:29N 25°42' W 080°11'0 0.0
2017-Oct-08 20:59N 25°42' W 080°11'0 0.0
2017-Oct-08 20:29N 25°42' W 080°11'0 0.0
2017-Oct-08 19:56N 25°42' W 080°11'0 0.0
2017-Oct-08 19:23N 25°42' W 080°11'0 0.0
2017-Oct-08 18:56N 25°42' W 080°11'0 0.0
2017-Oct-08 18:29N 25°42' W 080°11'0 0.2
2017-Oct-08 18:00N 25°42' W 080°11'4 6.5
2017-Oct-08 17:27N 25°43' W 080°14'0 0.0
2017-Oct-08 16:57N 25°43' W 080°14'0 0.0
2017-Oct-08 16:21N 25°43' W 080°14'0 0.0
2017-Oct-08 15:33N 25°43' W 080°14'0 0.0
2017-Oct-08 15:27N 25°43' W 080°14'0 0.0
2017-Oct-08 14:51N 25°43' W 080°14'0 0.0
2017-Oct-08 14:27N 25°43' W 080°14'0 0.0
2017-Oct-08 14:00N 25°43' W 080°14'0 0.0
2017-Oct-08 13:21N 25°43' W 080°14'0 0.0
2017-Oct-08 12:51N 25°43' W 080°14'0 0.0
2017-Oct-08 12:27N 25°43' W 080°14'0 0.0
2017-Oct-08 12:00N 25°43' W 080°14'0 0.0
2017-Oct-08 11:27N 25°43' W 080°14'0 0.0
2017-Oct-08 10:52N 25°43' W 080°14'0 0.0
2017-Oct-08 10:27N 25°43' W 080°14'0 0.0
2017-Oct-08 09:51N 25°43' W 080°14'0 0.0
2017-Oct-08 09:21N 25°43' W 080°14'0 0.0
2017-Oct-08 09:00N 25°43' W 080°14'0 0.0
2017-Oct-08 08:30N 25°43' W 080°14'0 0.0
2017-Oct-08 08:00N 25°43' W 080°14'0 0.0
2017-Oct-08 07:27N 25°43' W 080°14'0 0.0
2017-Oct-08 06:54N 25°43' W 080°14'0 0.0
2017-Oct-08 06:24N 25°43' W 080°14'0 0.0
2017-Oct-08 06:00N 25°43' W 080°14'0 0.0
2017-Oct-08 05:30N 25°43' W 080°14'0 0.0
2017-Oct-08 04:51N 25°43' W 080°14'0 0.0
2017-Oct-08 04:30N 25°43' W 080°14'0 0.0
2017-Oct-08 03:36N 25°43' W 080°14'0 0.0
2017-Oct-08 03:24N 25°43' W 080°14'0 0.0
2017-Oct-08 03:00N 25°43' W 080°14'0 0.0
2017-Oct-08 02:27N 25°43' W 080°14'0 0.0
2017-Oct-08 02:00N 25°43' W 080°14'0 0.0
2017-Oct-08 01:30N 25°43' W 080°14'0 0.0
2017-Oct-08 00:57N 25°43' W 080°14'0 0.0
2017-Oct-08 00:30N 25°43' W 080°14'0 0.0
2017-Oct-07 23:57N 25°43' W 080°14'0 0.0
2017-Oct-07 23:30N 25°43' W 080°14'0 0.0
2017-Oct-07 23:00N 25°43' W 080°14'0 0.0
2017-Oct-07 22:21N 25°43' W 080°14'0 0.0
2017-Oct-07 21:57N 25°43' W 080°14'0 0.0
2017-Oct-07 21:27N 25°43' W 080°14'0 0.0
2017-Oct-07 21:00N 25°43' W 080°14'0 0.0
2017-Oct-07 20:21N 25°43' W 080°14'0 0.0
2017-Oct-07 19:57N 25°43' W 080°14'0 0.0
2017-Oct-07 19:27N 25°43' W 080°14'0 0.0
2017-Oct-07 19:00N 25°43' W 080°14'0 0.0
2017-Oct-07 18:27N 25°43' W 080°14'0 0.0
2017-Oct-07 18:00N 25°43' W 080°14'0 0.0
2017-Oct-07 17:27N 25°43' W 080°14'  
Track history (hours):
 
Tides and Currents Weather Stations Pressure Air Temp Water Temp Dewpoint Dewpoint Depression Visibility Wind Speed Wind Dir Waves Ship Positions

La Balsita

Owner: La Balsita Llc, Miami, FL. More information available from US FCC via Universal Licensing System and Coast Guard Vessel Documentation Center.

Last reported at 2017-Oct-17 16:59 UTC. Time now 2017-Oct-17 17:11 UTC.
Position N 25°43' W 080°14'.

Length 28 m; draft 1.7 m.

Type: Pleasure craft. MMSI: 338360000.

Date/timePositionNaut miles runAvg speedWind from/ knotsBaromVisibWave heightAir tempDewpointWater temp
2017-Oct-17 16:59N 25°43' W 080°14'0 0.0
2017-Oct-17 16:29N 25°43' W 080°14'0 0.0
2017-Oct-17 15:56N 25°43' W 080°14'0 0.0
2017-Oct-17 15:26N 25°43' W 080°14'0 0.0
2017-Oct-17 14:56N 25°43' W 080°14'0 0.0
2017-Oct-17 14:29N 25°43' W 080°14'0 0.0
2017-Oct-17 13:56N 25°43' W 080°14'0 0.0
2017-Oct-17 13:29N 25°43' W 080°14'0 0.0
2017-Oct-17 12:59N 25°43' W 080°14'0 0.0
2017-Oct-17 12:29N 25°43' W 080°14'0 0.0
2017-Oct-17 11:59N 25°43' W 080°14'0 0.0
2017-Oct-17 11:29N 25°43' W 080°14'0 0.0
2017-Oct-17 10:59N 25°43' W 080°14'0 0.0
2017-Oct-17 10:29N 25°43' W 080°14'0 0.0
2017-Oct-17 09:59N 25°43' W 080°14'0 0.0
2017-Oct-17 09:29N 25°43' W 080°14'0 0.0
2017-Oct-17 08:59N 25°43' W 080°14'0 0.0
2017-Oct-17 08:17N 25°43' W 080°14'0 0.0
2017-Oct-17 07:59N 25°43' W 080°14'0 0.0
2017-Oct-17 07:26N 25°43' W 080°14'0 0.0
2017-Oct-17 06:59N 25°43' W 080°14'0 0.0
2017-Oct-17 06:29N 25°43' W 080°14'0 0.0
2017-Oct-17 05:59N 25°43' W 080°14'0 0.0
2017-Oct-17 05:26N 25°43' W 080°14'0 0.0
2017-Oct-17 04:56N 25°43' W 080°14'0 0.0
2017-Oct-17 04:23N 25°43' W 080°14'0 0.0
2017-Oct-17 03:59N 25°43' W 080°14'0 0.0
2017-Oct-17 03:14N 25°43' W 080°14'0 0.0
2017-Oct-17 02:59N 25°43' W 080°14'0 0.0
2017-Oct-17 02:29N 25°43' W 080°14'0 0.0
2017-Oct-17 01:56N 25°43' W 080°14'0 0.0
2017-Oct-17 01:29N 25°43' W 080°14'3 5.3
2017-Oct-17 01:00N 25°44' W 080°11'3 5.7
2017-Oct-17 00:30N 25°46' W 080°09'1 1.3
2017-Oct-17 00:00N 25°47' W 080°09'2 4.1
2017-Oct-16 23:30N 25°46' W 080°11'4 7.2
2017-Oct-16 23:00N 25°43' W 080°14'1 1.0
2017-Oct-16 22:27N 25°43' W 080°14'0 0.0
2017-Oct-16 22:00N 25°43' W 080°14'0 0.0
2017-Oct-16 21:30N 25°43' W 080°14'0 0.0
2017-Oct-16 21:00N 25°43' W 080°14'0 0.0
2017-Oct-16 20:30N 25°43' W 080°14'0 0.0
2017-Oct-16 20:00N 25°43' W 080°14'0 0.0
2017-Oct-16 19:30N 25°43' W 080°14'0 0.0
2017-Oct-16 18:57N 25°43' W 080°14'0 0.0
2017-Oct-16 18:30N 25°43' W 080°14'0 0.0
2017-Oct-16 18:00N 25°43' W 080°14'0 0.0
2017-Oct-16 17:30N 25°43' W 080°14'0 0.0
2017-Oct-16 17:00N 25°43' W 080°14'0 0.0
2017-Oct-16 16:30N 25°43' W 080°14'0 0.0
2017-Oct-16 16:00N 25°43' W 080°14'0 0.0
2017-Oct-16 15:24N 25°43' W 080°14'0 0.0
2017-Oct-16 14:54N 25°43' W 080°14'0 0.0
2017-Oct-16 13:54N 25°43' W 080°14'0 0.0
2017-Oct-16 13:30N 25°43' W 080°14'0 0.0
2017-Oct-16 13:00N 25°43' W 080°14'0 0.0
2017-Oct-16 12:30N 25°43' W 080°14'0 0.0
2017-Oct-16 12:00N 25°43' W 080°14'0 0.0
2017-Oct-16 11:30N 25°43' W 080°14'0 0.0
2017-Oct-16 11:00N 25°43' W 080°14'0 0.0
2017-Oct-16 10:30N 25°43' W 080°14'0 0.0
2017-Oct-16 10:00N 25°43' W 080°14'0 0.0
2017-Oct-16 09:30N 25°43' W 080°14'0 0.0
2017-Oct-16 09:00N 25°43' W 080°14'0 0.0
2017-Oct-16 08:30N 25°43' W 080°14'0 0.0
2017-Oct-16 08:00N 25°43' W 080°14'0 0.0
2017-Oct-16 07:31N 25°43' W 080°14'0 0.0
2017-Oct-16 07:00N 25°43' W 080°14'0 0.0
2017-Oct-16 06:31N 25°43' W 080°14'0 0.0
2017-Oct-16 06:01N 25°43' W 080°14'0 0.0
2017-Oct-16 05:30N 25°43' W 080°14'0 0.0
2017-Oct-16 05:00N 25°43' W 080°14'0 0.0
2017-Oct-16 04:30N 25°43' W 080°14'0 0.0
2017-Oct-16 04:00N 25°43' W 080°14'0 0.0
2017-Oct-16 03:30N 25°43' W 080°14'0 0.0
2017-Oct-16 03:00N 25°43' W 080°14'0 0.0
2017-Oct-16 02:28N 25°43' W 080°14'0 0.0
2017-Oct-16 02:00N 25°43' W 080°14'0 0.0
2017-Oct-16 01:30N 25°43' W 080°14'0 0.0
2017-Oct-16 01:01N 25°43' W 080°14'0 0.0
2017-Oct-16 00:30N 25°43' W 080°14'0 0.4
2017-Oct-16 00:00N 25°43' W 080°14'5 8.7
2017-Oct-15 23:29N 25°41' W 080°10'0 0.0
2017-Oct-15 22:59N 25°41' W 080°10'0 0.0
2017-Oct-15 22:29N 25°41' W 080°10'0 0.0
2017-Oct-15 21:59N 25°41' W 080°10'0 0.0
2017-Oct-15 21:29N 25°41' W 080°10'0 0.0
2017-Oct-15 20:59N 25°41' W 080°10'0 0.0
2017-Oct-15 20:29N 25°41' W 080°10'0 0.0
2017-Oct-15 19:59N 25°41' W 080°10'0 0.0
2017-Oct-15 19:26N 25°41' W 080°10'0 0.9
2017-Oct-15 19:00N 25°41' W 080°10'4 8.7
2017-Oct-15 18:30N 25°43' W 080°14'0 0.1
2017-Oct-15 18:00N 25°43' W 080°14'0 0.0
2017-Oct-15 17:30N 25°43' W 080°14'0 0.0
2017-Oct-15 17:00N 25°43' W 080°14'0 0.0
2017-Oct-15 16:30N 25°43' W 080°14'0 0.0
2017-Oct-15 16:00N 25°43' W 080°14'0 0.0
2017-Oct-15 15:30N 25°43' W 080°14'0 0.0
2017-Oct-15 15:00N 25°43' W 080°14'0 0.0
2017-Oct-15 14:00N 25°43' W 080°14'0 0.0
2017-Oct-15 13:30N 25°43' W 080°14'0 0.0
2017-Oct-15 13:00N 25°43' W 080°14'0 0.0
2017-Oct-15 12:30N 25°43' W 080°14'0 0.0
2017-Oct-15 12:00N 25°43' W 080°14'0 0.0
2017-Oct-15 11:30N 25°43' W 080°14'0 0.0
2017-Oct-15 11:00N 25°43' W 080°14'0 0.0
2017-Oct-15 10:30N 25°43' W 080°14'0 0.0
2017-Oct-15 10:00N 25°43' W 080°14'0 0.0
2017-Oct-15 09:30N 25°43' W 080°14'0 0.0
2017-Oct-15 09:00N 25°43' W 080°14'0 0.0
2017-Oct-15 08:30N 25°43' W 080°14'0 0.0
2017-Oct-15 07:51N 25°43' W 080°14'0 0.0
2017-Oct-15 07:27N 25°43' W 080°14'0 0.0
2017-Oct-15 07:00N 25°43' W 080°14'0 0.0
2017-Oct-15 06:30N 25°43' W 080°14'0 0.0
2017-Oct-15 06:00N 25°43' W 080°14'0 0.0
2017-Oct-15 05:30N 25°43' W 080°14'0 0.0
2017-Oct-15 05:00N 25°43' W 080°14'0 0.0
2017-Oct-15 04:30N 25°43' W 080°14'0 0.0
2017-Oct-15 04:00N 25°43' W 080°14'0 0.0
2017-Oct-15 03:30N 25°43' W 080°14'0 0.0
2017-Oct-15 03:00N 25°43' W 080°14'0 0.0
2017-Oct-15 02:30N 25°43' W 080°14'0 0.0
2017-Oct-15 02:00N 25°43' W 080°14'0 0.0
2017-Oct-15 01:30N 25°43' W 080°14'0 0.0
2017-Oct-15 00:57N 25°43' W 080°14'0 0.0
2017-Oct-15 00:30N 25°43' W 080°14'0 0.0
2017-Oct-15 00:00N 25°43' W 080°14'3 5.4
2017-Oct-14 23:30N 25°44' W 080°11'2 3.7
2017-Oct-14 23:01N 25°46' W 080°11'5 9.1
2017-Oct-14 22:30N 25°42' W 080°11'0 0.3
2017-Oct-14 21:59N 25°41' W 080°11'0 0.0
2017-Oct-14 21:29N 25°41' W 080°11'0 0.0
2017-Oct-14 20:59N 25°41' W 080°11'0 0.0
2017-Oct-14 20:29N 25°41' W 080°11'0 0.0
2017-Oct-14 19:59N 25°41' W 080°11'0 0.0
2017-Oct-14 19:29N 25°41' W 080°11'0 0.0
2017-Oct-14 18:59N 25°41' W 080°11'0 0.7
2017-Oct-14 18:30N 25°41' W 080°11'2 4.2
2017-Oct-14 18:00N 25°39' W 080°11'5 9.2
2017-Oct-14 17:30N 25°43' W 080°14'0 0.9
2017-Oct-14 17:00N 25°43' W 080°14'0 0.0
2017-Oct-14 16:30N 25°43' W 080°14'0 0.0
2017-Oct-14 16:00N 25°43' W 080°14'0 0.0
2017-Oct-14 15:30N 25°43' W 080°14'0 0.0
2017-Oct-14 15:00N 25°43' W 080°14'0 0.0
2017-Oct-14 14:30N 25°43' W 080°14'0 0.0
2017-Oct-14 14:00N 25°43' W 080°14'0 0.0
2017-Oct-14 13:30N 25°43' W 080°14'0 0.0
2017-Oct-14 13:00N 25°43' W 080°14'0 0.0
2017-Oct-14 12:30N 25°43' W 080°14'0 0.0
2017-Oct-14 12:00N 25°43' W 080°14'0 0.0
2017-Oct-14 11:30N 25°43' W 080°14'0 0.0
2017-Oct-14 11:00N 25°43' W 080°14'0 0.0
2017-Oct-14 10:30N 25°43' W 080°14'0 0.0
2017-Oct-14 10:00N 25°43' W 080°14'0 0.0
2017-Oct-14 09:30N 25°43' W 080°14'0 0.0
2017-Oct-14 09:00N 25°43' W 080°14'0 0.0
2017-Oct-14 08:30N 25°43' W 080°14'0 0.0
2017-Oct-14 08:00N 25°43' W 080°14'0 0.0
2017-Oct-14 07:30N 25°43' W 080°14'0 0.0
2017-Oct-14 07:00N 25°43' W 080°14'0 0.0
2017-Oct-14 06:27N 25°43' W 080°14'0 0.0
2017-Oct-14 06:00N 25°43' W 080°14'0 0.0
2017-Oct-14 05:30N 25°43' W 080°14'0 0.0
2017-Oct-14 05:00N 25°43' W 080°14'0 0.0
2017-Oct-14 04:30N 25°43' W 080°14'0 0.0
2017-Oct-14 04:00N 25°43' W 080°14'0 0.0
2017-Oct-14 03:30N 25°43' W 080°14'0 0.0
2017-Oct-14 03:00N 25°43' W 080°14'0 0.0
2017-Oct-14 02:30N 25°43' W 080°14'0 0.0
2017-Oct-14 02:00N 25°43' W 080°14'0 0.0
2017-Oct-14 01:30N 25°43' W 080°14'0 0.0
2017-Oct-14 00:57N 25°43' W 080°14'0 0.0
2017-Oct-14 00:30N 25°43' W 080°14'0 0.0
2017-Oct-14 00:00N 25°43' W 080°14'0 0.0
2017-Oct-13 23:30N 25°43' W 080°14'0 0.0
2017-Oct-13 23:00N 25°43' W 080°14'0 0.0
2017-Oct-13 22:30N 25°43' W 080°14'0 0.0
2017-Oct-13 22:00N 25°43' W 080°14'0 0.0
2017-Oct-13 21:30N 25°43' W 080°14'0 0.0
2017-Oct-13 21:00N 25°43' W 080°14'0 0.0
2017-Oct-13 20:24N 25°43' W 080°14'0 0.0
2017-Oct-13 19:51N 25°43' W 080°14'0 0.0
2017-Oct-13 19:30N 25°43' W 080°14'0 0.0
2017-Oct-13 19:00N 25°43' W 080°14'0 0.0
2017-Oct-13 18:27N 25°43' W 080°14'0 0.0
2017-Oct-13 18:00N 25°43' W 080°14'0 0.0
2017-Oct-13 17:27N 25°43' W 080°14'0 0.0
2017-Oct-13 17:00N 25°43' W 080°14'0 0.0
2017-Oct-13 16:27N 25°43' W 080°14'0 0.0
2017-Oct-13 16:00N 25°43' W 080°14'0 0.0
2017-Oct-13 15:27N 25°43' W 080°14'0 0.0
2017-Oct-13 15:00N 25°43' W 080°14'0 0.0
2017-Oct-13 14:27N 25°43' W 080°14'0 0.0
2017-Oct-13 14:00N 25°43' W 080°14'0 0.0
2017-Oct-13 13:30N 25°43' W 080°14'0 0.0
2017-Oct-13 13:00N 25°43' W 080°14'0 0.0
2017-Oct-13 12:30N 25°43' W 080°14'0 0.0
2017-Oct-13 12:00N 25°43' W 080°14'0 0.0
2017-Oct-13 11:24N 25°43' W 080°14'0 0.0
2017-Oct-13 11:00N 25°43' W 080°14'0 0.0
2017-Oct-13 10:27N 25°43' W 080°14'0 0.0
2017-Oct-13 10:00N 25°43' W 080°14'0 0.0
2017-Oct-13 09:30N 25°43' W 080°14'0 0.0
2017-Oct-13 08:42N 25°43' W 080°14'0 0.0
2017-Oct-13 08:21N 25°43' W 080°14'0 0.0
2017-Oct-13 07:54N 25°43' W 080°14'0 0.0
2017-Oct-13 07:30N 25°43' W 080°14'0 0.0
2017-Oct-13 06:57N 25°43' W 080°14'0 0.0
2017-Oct-13 06:27N 25°43' W 080°14'0 0.0
2017-Oct-13 05:54N 25°43' W 080°14'0 0.0
2017-Oct-13 05:30N 25°43' W 080°14'0 0.0
2017-Oct-13 05:00N 25°43' W 080°14'0 0.0
2017-Oct-13 04:27N 25°43' W 080°14'0 0.0
2017-Oct-13 04:00N 25°43' W 080°14'0 0.0
2017-Oct-13 03:30N 25°43' W 080°14'0 0.0
2017-Oct-13 03:00N 25°43' W 080°14'0 0.0
2017-Oct-13 02:30N 25°43' W 080°14'0 0.0
2017-Oct-13 02:00N 25°43' W 080°14'0 0.0
2017-Oct-13 01:30N 25°43' W 080°14'0 0.0
2017-Oct-13 00:57N 25°43' W 080°14'0 0.0
2017-Oct-13 00:12N 25°43' W 080°14'0 0.0
2017-Oct-13 00:00N 25°43' W 080°14'0 0.0
2017-Oct-12 23:27N 25°43' W 080°14'0 0.0
2017-Oct-12 23:00N 25°43' W 080°14'0 0.0
2017-Oct-12 22:24N 25°43' W 080°14'0 0.0
2017-Oct-12 21:57N 25°43' W 080°14'0 0.0
2017-Oct-12 21:30N 25°43' W 080°14'0 0.0
2017-Oct-12 20:57N 25°43' W 080°14'0 0.0
2017-Oct-12 20:27N 25°43' W 080°14'0 0.0
2017-Oct-12 19:57N 25°43' W 080°14'0 0.0
2017-Oct-12 19:18N 25°43' W 080°14'0 0.0
2017-Oct-12 19:00N 25°43' W 080°14'0 0.0
2017-Oct-12 18:30N 25°43' W 080°14'0 0.0
2017-Oct-12 18:00N 25°43' W 080°14'0 0.0
2017-Oct-12 17:24N 25°43' W 080°14'0 0.0
2017-Oct-12 16:48N 25°43' W 080°14'0 0.0
2017-Oct-12 16:27N 25°43' W 080°14'0 0.0
2017-Oct-12 15:48N 25°43' W 080°14'0 0.0
2017-Oct-12 15:24N 25°43' W 080°14'0 0.0
2017-Oct-12 15:00N 25°43' W 080°14'0 0.0
2017-Oct-12 14:27N 25°43' W 080°14'0 0.0
2017-Oct-12 13:57N 25°43' W 080°14'0 0.0
2017-Oct-12 13:30N 25°43' W 080°14'0 0.0
2017-Oct-12 13:00N 25°43' W 080°14'0 0.0
2017-Oct-12 12:27N 25°43' W 080°14'0 0.0
2017-Oct-12 11:33N 25°43' W 080°14'0 0.0
2017-Oct-12 11:24N 25°43' W 080°14'0 0.0
2017-Oct-12 10:51N 25°43' W 080°14'0 0.0
2017-Oct-12 10:27N 25°43' W 080°14'0 0.0
2017-Oct-12 09:57N 25°43' W 080°14'0 0.0
2017-Oct-12 09:24N 25°43' W 080°14'0 0.0
2017-Oct-12 09:00N 25°43' W 080°14'0 0.0
2017-Oct-12 08:30N 25°43' W 080°14'0 0.0
2017-Oct-12 08:00N 25°43' W 080°14'0 0.0
2017-Oct-12 07:30N 25°43' W 080°14'0 0.0
2017-Oct-12 06:51N 25°43' W 080°14'0 0.0
2017-Oct-12 06:21N 25°43' W 080°14'0 0.0
2017-Oct-12 05:54N 25°43' W 080°14'0 0.0
2017-Oct-12 05:30N 25°43' W 080°14'0 0.0
2017-Oct-12 04:57N 25°43' W 080°14'0 0.0
2017-Oct-12 04:30N 25°43' W 080°14'0 0.0
2017-Oct-12 04:00N 25°43' W 080°14'0 0.0
2017-Oct-12 03:24N 25°43' W 080°14'0 0.0
2017-Oct-12 02:54N 25°43' W 080°14'0 0.0
2017-Oct-12 02:18N 25°43' W 080°14'0 0.0
2017-Oct-12 02:00N 25°43' W 080°14'0 0.0
2017-Oct-12 01:24N 25°43' W 080°14'0 0.0
2017-Oct-12 01:00N 25°43' W 080°14'0 0.0
2017-Oct-12 00:30N 25°43' W 080°14'0 0.0
2017-Oct-12 00:00N 25°43' W 080°14'0 0.0
2017-Oct-11 23:21N 25°43' W 080°14'0 0.0
2017-Oct-11 23:00N 25°43' W 080°14'0 0.0
2017-Oct-11 22:27N 25°43' W 080°14'0 0.0
2017-Oct-11 21:54N 25°43' W 080°14'0 0.0
2017-Oct-11 21:30N 25°43' W 080°14'0 0.0
2017-Oct-11 21:00N 25°43' W 080°14'0 0.0
2017-Oct-11 20:27N 25°43' W 080°14'0 0.0
2017-Oct-11 19:57N 25°43' W 080°14'0 0.0
2017-Oct-11 19:30N 25°43' W 080°14'0 0.0
2017-Oct-11 18:48N 25°43' W 080°14'0 0.0
2017-Oct-11 18:12N 25°43' W 080°14'0 0.0
2017-Oct-11 18:00N 25°43' W 080°14'0 0.0
2017-Oct-11 17:30N 25°43' W 080°14'0 0.0
2017-Oct-11 16:57N 25°43' W 080°14'0 0.0
2017-Oct-11 00:00N 25°43' W 080°14'0 0.0
2017-Oct-10 23:30N 25°43' W 080°14'0 0.0
2017-Oct-10 22:57N 25°43' W 080°14'0 0.0
2017-Oct-10 22:30N 25°43' W 080°14'0 0.0
2017-Oct-10 21:57N 25°43' W 080°14'0 0.0
2017-Oct-10 21:30N 25°43' W 080°14'0 0.0
2017-Oct-10 21:00N 25°43' W 080°14'0 0.0
2017-Oct-10 20:30N 25°43' W 080°14'0 0.0
2017-Oct-10 20:00N 25°43' W 080°14'0 0.0
2017-Oct-10 19:30N 25°43' W 080°14'0 0.0
2017-Oct-10 18:57N 25°43' W 080°14'0 0.0
2017-Oct-10 18:30N 25°43' W 080°14'0 0.0
2017-Oct-10 18:00N 25°43' W 080°14'0 0.0
2017-Oct-10 17:24N 25°43' W 080°14'0 0.0
2017-Oct-10 17:00N 25°43' W 080°14'0 0.0
2017-Oct-10 16:30N 25°43' W 080°14'0 0.0
2017-Oct-10 16:00N 25°43' W 080°14'0 0.0
2017-Oct-10 15:30N 25°43' W 080°14'0 0.0
2017-Oct-10 15:00N 25°43' W 080°14'0 0.0
2017-Oct-10 13:54N 25°43' W 080°14'0 0.0
2017-Oct-10 13:27N 25°43' W 080°14'0 0.0
2017-Oct-10 12:57N 25°43' W 080°14'0 0.0
2017-Oct-10 12:30N 25°43' W 080°14'0 0.0
2017-Oct-10 11:57N 25°43' W 080°14'0 0.0
2017-Oct-10 11:30N 25°43' W 080°14'0 0.0
2017-Oct-10 10:57N 25°43' W 080°14'0 0.0
2017-Oct-10 10:30N 25°43' W 080°14'0 0.0
2017-Oct-10 09:57N 25°43' W 080°14'0 0.0
2017-Oct-10 09:12N 25°43' W 080°14'0 0.0
2017-Oct-10 08:57N 25°43' W 080°14'0 0.0
2017-Oct-10 08:30N 25°43' W 080°14'0 0.0
2017-Oct-10 08:00N 25°43' W 080°14'0 0.0
2017-Oct-10 07:27N 25°43' W 080°14'0 0.0
2017-Oct-10 06:54N 25°43' W 080°14'0 0.0
2017-Oct-10 06:30N 25°43' W 080°14'0 0.0
2017-Oct-10 05:57N 25°43' W 080°14'0 0.0
2017-Oct-10 05:15N 25°43' W 080°14'0 0.0
2017-Oct-10 04:57N 25°43' W 080°14'0 0.0
2017-Oct-10 04:30N 25°43' W 080°14'0 0.0
2017-Oct-10 03:57N 25°43' W 080°14'0 0.0
2017-Oct-10 03:30N 25°43' W 080°14'0 0.0
2017-Oct-10 02:57N 25°43' W 080°14'0 0.0
2017-Oct-10 02:18N 25°43' W 080°14'0 0.0
2017-Oct-10 01:54N 25°43' W 080°14'0 0.0
2017-Oct-10 01:24N 25°43' W 080°14'0 0.0
2017-Oct-10 01:00N 25°43' W 080°14'0 0.0
2017-Oct-10 00:30N 25°43' W 080°14'0 0.0
2017-Oct-09 23:48N 25°43' W 080°14'1 2.8
2017-Oct-09 23:30N 25°43' W 080°13'4 8.0
2017-Oct-09 23:00N 25°41' W 080°10'0 0.0
2017-Oct-09 22:24N 25°41' W 080°10'0 0.0
2017-Oct-09 21:51N 25°41' W 080°10'0 0.0
2017-Oct-09 21:30N 25°41' W 080°10'0 0.0
2017-Oct-09 20:54N 25°41' W 080°10'0 0.0
2017-Oct-09 20:27N 25°41' W 080°10'0 0.0
2017-Oct-09 19:39N 25°41' W 080°10'0 0.0
2017-Oct-09 19:30N 25°41' W 080°10'0 0.0
2017-Oct-09 19:00N 25°41' W 080°10'0 0.0
2017-Oct-09 18:21N 25°41' W 080°10'0 0.0
2017-Oct-09 17:51N 25°41' W 080°10'0 0.1
2017-Oct-09 17:24N 25°41' W 080°10'2 3.9
2017-Oct-09 17:00N 25°39' W 080°11'5 9.3
2017-Oct-09 16:30N 25°43' W 080°13'1 1.5
2017-Oct-09 15:59N 25°43' W 080°14'0 0.0
2017-Oct-09 15:26N 25°43' W 080°14'0 0.0
2017-Oct-09 14:44N 25°43' W 080°14'0 0.0
2017-Oct-09 14:26N 25°43' W 080°14'0 0.0
2017-Oct-09 13:56N 25°43' W 080°14'0 0.0
2017-Oct-09 13:29N 25°43' W 080°14'0 0.0
2017-Oct-09 12:56N 25°43' W 080°14'0 0.0
2017-Oct-09 12:23N 25°43' W 080°14'0 0.0
2017-Oct-09 11:41N 25°43' W 080°14'0 0.0
2017-Oct-09 11:29N 25°43' W 080°14'0 0.0
2017-Oct-09 10:44N 25°43' W 080°14'0 0.0
2017-Oct-09 10:23N 25°43' W 080°14'0 0.0
2017-Oct-09 09:56N 25°43' W 080°14'0 0.0
2017-Oct-09 09:26N 25°43' W 080°14'0 0.0
2017-Oct-09 08:59N 25°43' W 080°14'0 0.0
2017-Oct-09 08:29N 25°43' W 080°14'0 0.0
2017-Oct-09 07:53N 25°43' W 080°14'0 0.0
2017-Oct-09 07:26N 25°43' W 080°14'0 0.0
2017-Oct-09 06:38N 25°43' W 080°14'0 0.0
2017-Oct-09 06:11N 25°43' W 080°14'0 0.0
2017-Oct-09 05:59N 25°43' W 080°14'0 0.0
2017-Oct-09 05:26N 25°43' W 080°14'0 0.0
2017-Oct-09 04:59N 25°43' W 080°14'0 0.0
2017-Oct-09 04:14N 25°43' W 080°14'0 0.0
2017-Oct-09 03:59N 25°43' W 080°14'0 0.0
2017-Oct-09 03:29N 25°43' W 080°14'0 0.0
2017-Oct-09 02:59N 25°43' W 080°14'0 0.7
2017-Oct-09 02:30N 25°43' W 080°14'3 4.3
2017-Oct-09 01:44N 25°42' W 080°11'0 0.0
2017-Oct-09 00:50N 25°42' W 080°11'0 0.0
2017-Oct-09 00:20N 25°42' W 080°11'0 0.0
2017-Oct-08 23:56N 25°42' W 080°11'0 0.0
2017-Oct-08 23:20N 25°42' W 080°11'0 0.0
2017-Oct-08 22:59N 25°42' W 080°11'0 0.0
2017-Oct-08 22:26N 25°42' W 080°11'0 0.0
2017-Oct-08 21:56N 25°42' W 080°11'0 0.0
2017-Oct-08 21:29N 25°42' W 080°11'0 0.0
2017-Oct-08 20:59N 25°42' W 080°11'0 0.0
2017-Oct-08 20:29N 25°42' W 080°11'0 0.0
2017-Oct-08 19:56N 25°42' W 080°11'0 0.0
2017-Oct-08 19:23N 25°42' W 080°11'0 0.0
2017-Oct-08 18:56N 25°42' W 080°11'0 0.0
2017-Oct-08 18:29N 25°42' W 080°11'0 0.2
2017-Oct-08 18:00N 25°42' W 080°11'4 6.5
2017-Oct-08 17:27N 25°43' W 080°14'0 0.0
2017-Oct-08 16:57N 25°43' W 080°14'0 0.0
2017-Oct-08 16:21N 25°43' W 080°14'0 0.0
2017-Oct-08 15:33N 25°43' W 080°14'0 0.0
2017-Oct-08 15:27N 25°43' W 080°14'0 0.0
2017-Oct-08 14:51N 25°43' W 080°14'0 0.0
2017-Oct-08 14:27N 25°43' W 080°14'0 0.0
2017-Oct-08 14:00N 25°43' W 080°14'0 0.0
2017-Oct-08 13:21N 25°43' W 080°14'0 0.0
2017-Oct-08 12:51N 25°43' W 080°14'0 0.0
2017-Oct-08 12:27N 25°43' W 080°14'0 0.0
2017-Oct-08 12:00N 25°43' W 080°14'0 0.0
2017-Oct-08 11:27N 25°43' W 080°14'0 0.0
2017-Oct-08 10:52N 25°43' W 080°14'0 0.0
2017-Oct-08 10:27N 25°43' W 080°14'0 0.0
2017-Oct-08 09:51N 25°43' W 080°14'0 0.0
2017-Oct-08 09:21N 25°43' W 080°14'0 0.0
2017-Oct-08 09:00N 25°43' W 080°14'0 0.0
2017-Oct-08 08:30N 25°43' W 080°14'0 0.0
2017-Oct-08 08:00N 25°43' W 080°14'0 0.0
2017-Oct-08 07:27N 25°43' W 080°14'0 0.0
2017-Oct-08 06:54N 25°43' W 080°14'0 0.0
2017-Oct-08 06:24N 25°43' W 080°14'0 0.0
2017-Oct-08 06:00N 25°43' W 080°14'0 0.0
2017-Oct-08 05:30N 25°43' W 080°14'0 0.0
2017-Oct-08 04:51N 25°43' W 080°14'0 0.0
2017-Oct-08 04:30N 25°43' W 080°14'0 0.0
2017-Oct-08 03:36N 25°43' W 080°14'0 0.0
2017-Oct-08 03:24N 25°43' W 080°14'0 0.0
2017-Oct-08 03:00N 25°43' W 080°14'0 0.0
2017-Oct-08 02:27N 25°43' W 080°14'0 0.0
2017-Oct-08 02:00N 25°43' W 080°14'0 0.0
2017-Oct-08 01:30N 25°43' W 080°14'0 0.0
2017-Oct-08 00:57N 25°43' W 080°14'0 0.0
2017-Oct-08 00:30N 25°43' W 080°14'0 0.0
2017-Oct-07 23:57N 25°43' W 080°14'0 0.0
2017-Oct-07 23:30N 25°43' W 080°14'0 0.0
2017-Oct-07 23:00N 25°43' W 080°14'0 0.0
2017-Oct-07 22:21N 25°43' W 080°14'0 0.0
2017-Oct-07 21:57N 25°43' W 080°14'0 0.0
2017-Oct-07 21:27N 25°43' W 080°14'0 0.0
2017-Oct-07 21:00N 25°43' W 080°14'0 0.0
2017-Oct-07 20:21N 25°43' W 080°14'0 0.0
2017-Oct-07 19:57N 25°43' W 080°14'0 0.0
2017-Oct-07 19:27N 25°43' W 080°14'0 0.0
2017-Oct-07 19:00N 25°43' W 080°14'0 0.0
2017-Oct-07 18:27N 25°43' W 080°14'0 0.0
2017-Oct-07 18:00N 25°43' W 080°14'0 0.0
2017-Oct-07 17:27N 25°43' W 080°14'  

Dump ship's entire track history